STS Pogoria — SQKY — position and weather

sailwx.info

Track history (hours):
 
Tides and Currents Weather Stations Pressure Air Temp Water Temp Dewpoint Dewpoint Depression Visibility Wind Speed Wind Dir Waves Ship Positions

STS Pogoria

Last reported at 2019-Feb-19 04:24 UTC. Time now 2019-Feb-21 15:38 UTC.
Position N 43°11' E 010°09'.

Length 47 m.

Type: Sailing vessel. MMSI: 261146000.

Date/timePositionNaut miles runAvg speedWind from/ knotsBaromVisibWave heightAir tempDewpointWater temp
2019-Feb-19 04:24N 43°11' E 010°09'3 5.1
2019-Feb-19 03:55N 43°14' E 010°07'2 5.1
2019-Feb-19 03:29N 43°16' E 010°06'2 5.0
2019-Feb-19 03:00N 43°18' E 010°05'3 5.2
2019-Feb-19 02:29N 43°20' E 010°03'2 5.1
2019-Feb-19 02:00N 43°23' E 010°02'3 5.1
2019-Feb-19 01:30N 43°25' E 010°01'3 5.3
2019-Feb-19 01:00N 43°27' E 009°60'3 5.2
2019-Feb-19 00:30N 43°30' E 009°58'3 5.0
2019-Feb-19 00:00N 43°32' E 009°57'3 5.6
2019-Feb-18 23:30N 43°35' E 009°56'3 5.6
2019-Feb-18 23:00N 43°37' E 009°54'3 5.6
2019-Feb-18 22:30N 43°40' E 009°53'3 5.7
2019-Feb-18 22:00N 43°43' E 009°53'3 6.0
2019-Feb-18 21:30N 43°46' E 009°53'3 5.9
2019-Feb-18 21:00N 43°49' E 009°54'3 5.8
2019-Feb-18 20:30N 43°52' E 009°54'3 5.8
2019-Feb-18 20:01N 43°55' E 009°53'3 5.8
2019-Feb-18 19:30N 43°58' E 009°53'3 5.6
2019-Feb-18 19:00N 44°00' E 009°53'3 6.1
2019-Feb-18 18:30N 44°03' E 009°52'0 0.8
2019-Feb-18 18:00N 44°03' E 009°51'0 0.0
2019-Feb-18 17:30N 44°03' E 009°51'0 0.0
2019-Feb-18 17:00N 44°03' E 009°51'0 0.0
2019-Feb-18 16:30N 44°03' E 009°51'0 0.0
2019-Feb-18 16:00N 44°03' E 009°51'0 0.0
2019-Feb-18 15:30N 44°03' E 009°51'0 0.0
2019-Feb-18 15:00N 44°03' E 009°51'0 0.0
2019-Feb-18 14:30N 44°03' E 009°51'0 0.0
2019-Feb-18 14:00N 44°03' E 009°51'0 0.0
2019-Feb-18 13:30N 44°03' E 009°51'0 0.1
2019-Feb-18 13:00N 44°03' E 009°51'0 0.0
2019-Feb-18 12:30N 44°03' E 009°51'0 0.0
2019-Feb-18 12:00N 44°03' E 009°51'0 0.0
2019-Feb-18 11:30N 44°03' E 009°51'0 0.1
2019-Feb-18 10:57N 44°03' E 009°51'0 0.0
2019-Feb-18 10:27N 44°03' E 009°51'0 0.0
2019-Feb-18 10:00N 44°03' E 009°51'0 0.0
2019-Feb-18 09:30N 44°03' E 009°51'0 0.0
2019-Feb-18 09:00N 44°03' E 009°51'0 0.0
2019-Feb-18 08:30N 44°03' E 009°51'0 0.0
2019-Feb-18 07:54N 44°03' E 009°51'0 0.0
2019-Feb-18 07:30N 44°03' E 009°51'0 0.0
2019-Feb-18 07:00N 44°03' E 009°51'0 0.0
2019-Feb-18 06:30N 44°03' E 009°51'0 0.0
2019-Feb-18 06:00N 44°03' E 009°51'0 0.0
2019-Feb-18 05:30N 44°03' E 009°51'0 0.5
2019-Feb-18 05:00N 44°03' E 009°51'2 4.1
2019-Feb-18 04:30N 44°01' E 009°52'2 3.5
2019-Feb-18 04:00N 44°01' E 009°49'2 4.4
2019-Feb-18 03:30N 44°01' E 009°46'3 5.4
2019-Feb-18 03:00N 44°01' E 009°43'3 5.5
2019-Feb-18 02:30N 44°02' E 009°39'3 5.5
2019-Feb-18 02:00N 44°02' E 009°35'3 5.5
2019-Feb-18 01:30N 44°02' E 009°31'3 5.5
2019-Feb-18 01:00N 44°02' E 009°27'3 5.4
2019-Feb-18 00:30N 44°03' E 009°24'3 5.5
2019-Feb-18 00:00N 44°03' E 009°20'3 5.5
2019-Feb-17 23:30N 44°03' E 009°16'3 5.4
2019-Feb-17 23:00N 44°04' E 009°12'3 5.4
2019-Feb-17 22:30N 44°04' E 009°09'3 5.5
2019-Feb-17 22:00N 44°04' E 009°05'3 5.6
2019-Feb-17 21:30N 44°05' E 009°01'7 5.5
2019-Feb-17 20:13N 44°05' E 008°51'5 5.2
2019-Feb-17 19:14N 44°07' E 008°44'2 5.5
2019-Feb-17 18:55N 44°07' E 008°42'18 2.3
2019-Feb-17 10:53N 44°08' E 008°16'0 0.0
2019-Feb-17 05:29N 44°08' E 008°16'0 0.0
2019-Feb-17 02:56N 44°08' E 008°16'0 0.0
2019-Feb-16 13:14N 44°08' E 008°16'0 0.0
2019-Feb-16 12:44N 44°08' E 008°16'0 0.0
2019-Feb-16 11:20N 44°08' E 008°16'0 0.0
2019-Feb-16 10:26N 44°08' E 008°16'0 0.0
2019-Feb-15 16:22N 44°08' E 008°16'0 0.0
2019-Feb-15 14:45N 44°08' E 008°16'1 2.9
2019-Feb-15 14:30N 44°07' E 008°17'2 4.9
2019-Feb-15 14:00N 44°05' E 008°17'0 0.3
2019-Feb-15 13:15N 44°05' E 008°18'0 0.2
2019-Feb-15 12:15N 44°05' E 008°17'0 0.0
2019-Feb-15 11:43N 44°05' E 008°17'0 0.1
2019-Feb-15 10:46N 44°05' E 008°17'1 1.3
2019-Feb-15 10:13N 44°04' E 008°17'2 5.2
2019-Feb-15 09:55N 44°03' E 008°16'3 5.0
2019-Feb-15 09:17N 43°60' E 008°14'2 5.0
2019-Feb-15 08:56N 43°58' E 008°13'2 5.3
2019-Feb-15 08:30N 43°56' E 008°13'2 5.0
2019-Feb-15 08:00N 43°53' E 008°13'2 4.7
2019-Feb-15 07:29N 43°51' E 008°12'2 4.0
2019-Feb-15 07:00N 43°49' E 008°11'2 4.9
2019-Feb-15 06:30N 43°49' E 008°07'3 4.9
2019-Feb-15 05:58N 43°48' E 008°04'2 5.0
2019-Feb-15 05:30N 43°47' E 008°01'6 5.0
2019-Feb-15 04:22N 43°46' E 007°53'2 5.4
2019-Feb-15 04:00N 43°45' E 007°51'4 5.4
2019-Feb-15 03:14N 43°44' E 007°45'1 5.4
2019-Feb-15 03:00N 43°44' E 007°43'3 5.3
2019-Feb-15 02:30N 43°44' E 007°40'3 5.4
2019-Feb-15 02:00N 43°43' E 007°36'3 5.3
2019-Feb-15 01:30N 43°42' E 007°33'3 5.3
2019-Feb-15 01:00N 43°42' E 007°29'3 5.2
2019-Feb-15 00:30N 43°41' E 007°26'3 5.1
2019-Feb-15 00:00N 43°40' E 007°22'3 5.2
2019-Feb-14 23:30N 43°40' E 007°19'2 2.8
2019-Feb-14 22:56N 43°42' E 007°17'0 0.0
2019-Feb-14 22:29N 43°42' E 007°17'0 0.0
2019-Feb-14 21:56N 43°42' E 007°17'0 0.0
2019-Feb-14 21:26N 43°42' E 007°17'0 0.0
2019-Feb-14 20:59N 43°42' E 007°17'0 0.0
2019-Feb-14 20:26N 43°42' E 007°17'0 0.0
2019-Feb-14 19:59N 43°42' E 007°17'0 0.0
2019-Feb-14 19:29N 43°42' E 007°17'0 0.0
2019-Feb-14 18:59N 43°42' E 007°17'0 0.0
2019-Feb-14 18:29N 43°42' E 007°17'0 0.0
2019-Feb-14 17:59N 43°42' E 007°17'0 0.0
2019-Feb-14 17:26N 43°42' E 007°17'0 0.0
2019-Feb-14 16:59N 43°42' E 007°17'0 0.0
2019-Feb-14 16:29N 43°42' E 007°17'0 0.0
2019-Feb-14 15:59N 43°42' E 007°17'0 0.0
2019-Feb-14 15:20N 43°42' E 007°17'0 0.0
2019-Feb-14 14:59N 43°42' E 007°17'0 0.0
2019-Feb-14 14:29N 43°42' E 007°17'0 0.0
2019-Feb-14 13:59N 43°42' E 007°17'0 0.0
2019-Feb-14 13:29N 43°42' E 007°17'0 0.0
2019-Feb-14 12:59N 43°42' E 007°17'0 0.0
2019-Feb-14 12:29N 43°42' E 007°17'0 0.5
2019-Feb-14 12:00N 43°41' E 007°17'3 5.8
2019-Feb-14 11:30N 43°39' E 007°17'3 6.5
2019-Feb-14 11:00N 43°35' E 007°16'3 5.0
2019-Feb-14 10:30N 43°33' E 007°16'0 0.4
2019-Feb-14 10:00N 43°33' E 007°15'0 0.4
2019-Feb-14 09:30N 43°33' E 007°16'0 0.5
2019-Feb-14 09:00N 43°33' E 007°16'0 0.5
2019-Feb-14 08:30N 43°34' E 007°16'0 0.6
2019-Feb-14 08:00N 43°34' E 007°16'0 0.5
2019-Feb-14 07:30N 43°34' E 007°16'0 0.6
2019-Feb-14 07:00N 43°34' E 007°17'0 0.6
2019-Feb-14 06:30N 43°34' E 007°17'0 0.7
2019-Feb-14 06:00N 43°35' E 007°17'0 0.6
2019-Feb-14 05:31N 43°34' E 007°17'2 4.5
2019-Feb-14 05:00N 43°32' E 007°17'2 4.2
2019-Feb-14 04:30N 43°30' E 007°17'2 4.1
2019-Feb-14 04:00N 43°28' E 007°17'4 4.0
2019-Feb-14 03:00N 43°26' E 007°13'2 3.7
2019-Feb-14 02:30N 43°25' E 007°11'2 3.7
2019-Feb-14 02:00N 43°24' E 007°08'2 3.6
2019-Feb-14 01:30N 43°23' E 007°06'2 3.6
2019-Feb-14 00:57N 43°22' E 007°04'2 3.7
2019-Feb-14 00:29N 43°21' E 007°02'2 3.6
2019-Feb-13 23:58N 43°20' E 006°60'3 3.8
2019-Feb-13 23:17N 43°18' E 006°57'1 0.5
2019-Feb-13 21:13N 43°19' E 006°56'1 0.9
2019-Feb-13 20:25N 43°20' E 006°57'1 0.9
2019-Feb-13 19:52N 43°21' E 006°57'0 0.9
2019-Feb-13 19:25N 43°21' E 006°57'0 0.8
2019-Feb-13 18:58N 43°21' E 006°57'0 1.0
2019-Feb-13 18:30N 43°22' E 006°56'14 1.1
2019-Feb-13 05:31N 43°16' E 006°38'0 0.1
2019-Feb-13 05:28N 43°16' E 006°38'0 0.0
2019-Feb-12 23:16N 43°16' E 006°38'0 0.0
2019-Feb-12 22:49N 43°16' E 006°38'0 0.6
2019-Feb-12 22:15N 43°17' E 006°38'11 5.7
2019-Feb-12 20:22N 43°22' E 006°51'2 5.8
2019-Feb-12 20:00N 43°23' E 006°53'3 5.8
2019-Feb-12 19:30N 43°25' E 006°57'3 5.1
2019-Feb-12 19:00N 43°26' E 006°59'2 3.9
2019-Feb-12 18:30N 43°27' E 007°02'2 4.5
2019-Feb-12 18:00N 43°28' E 007°04'2 4.3
2019-Feb-12 17:30N 43°29' E 007°07'2 3.0
2019-Feb-12 17:00N 43°30' E 007°09'2 4.1
2019-Feb-12 16:30N 43°31' E 007°11'2 4.4
2019-Feb-12 16:00N 43°33' E 007°14'3 5.8
2019-Feb-12 15:30N 43°34' E 007°17'3 5.1
2019-Feb-12 15:00N 43°35' E 007°20'3 5.1
2019-Feb-12 14:30N 43°37' E 007°23'1 2.2
2019-Feb-12 14:00N 43°36' E 007°23'1 1.9
2019-Feb-12 13:30N 43°36' E 007°25'2 4.0
2019-Feb-12 13:00N 43°37' E 007°27'2 4.1
2019-Feb-12 12:30N 43°38' E 007°29'2 3.9
2019-Feb-12 12:00N 43°39' E 007°31'2 4.0
2019-Feb-12 11:31N 43°40' E 007°34'2 4.9
2019-Feb-12 11:00N 43°41' E 007°37'3 5.7
2019-Feb-12 10:29N 43°42' E 007°41'3 5.9
2019-Feb-12 10:00N 43°42' E 007°45'3 5.9
2019-Feb-12 09:30N 43°43' E 007°49'3 6.3
2019-Feb-12 09:00N 43°44' E 007°53'3 6.4
2019-Feb-12 08:31N 43°45' E 007°57'4 6.4
2019-Feb-12 07:55N 43°47' E 008°02'6 2.1
2019-Feb-12 04:53N 43°49' E 008°10'3 2.9
2019-Feb-12 03:42N 43°51' E 008°13'1 4.3
2019-Feb-12 03:29N 43°52' E 008°15'11 4.2
2019-Feb-12 00:57N 44°00' E 008°24'4 6.3
2019-Feb-12 00:22N 44°03' E 008°27'3 7.5
2019-Feb-11 23:57N 44°06' E 008°30'4 7.7
2019-Feb-11 23:29N 44°09' E 008°33'3 5.3
2019-Feb-11 23:00N 44°11' E 008°35'3 6.4
2019-Feb-11 22:30N 44°13' E 008°38'3 5.9
2019-Feb-11 22:00N 44°15' E 008°40'3 6.3
2019-Feb-11 21:30N 44°18' E 008°43'3 6.3
2019-Feb-11 21:00N 44°21' E 008°45'3 5.4
2019-Feb-11 20:30N 44°23' E 008°46'3 5.0
2019-Feb-11 20:00N 44°25' E 008°49'1 2.0
2019-Feb-11 19:28N 44°25' E 008°50'0 0.0
2019-Feb-11 18:58N 44°25' E 008°50'0 0.0
2019-Feb-11 18:28N 44°25' E 008°50'0 0.0
2019-Feb-11 17:58N 44°25' E 008°50'0 0.0
2019-Feb-11 17:28N 44°25' E 008°50'0 0.1
2019-Feb-11 17:00N 44°25' E 008°50'0 0.0
2019-Feb-11 16:30N 44°25' E 008°50'0 0.0
2019-Feb-11 16:00N 44°25' E 008°50'0 0.0
2019-Feb-11 15:30N 44°25' E 008°50'0 0.0
2019-Feb-11 15:00N 44°25' E 008°50'0 0.0
2019-Feb-11 14:30N 44°25' E 008°50'0 0.0
2019-Feb-11 14:00N 44°25' E 008°50'0 0.0
2019-Feb-11 13:30N 44°25' E 008°50'0 0.0
2019-Feb-11 13:00N 44°25' E 008°50'0 0.0
2019-Feb-11 12:30N 44°25' E 008°50'0 0.0
2019-Feb-11 12:00N 44°25' E 008°50'0 0.0
2019-Feb-11 11:30N 44°25' E 008°50'0 0.0
2019-Feb-11 11:00N 44°25' E 008°50'0 0.0
2019-Feb-11 10:30N 44°25' E 008°50'0 0.0
2019-Feb-11 10:00N 44°25' E 008°50'0 0.0
2019-Feb-11 09:30N 44°25' E 008°50'0 0.0
2019-Feb-11 09:00N 44°25' E 008°50'0 0.0
2019-Feb-11 08:30N 44°25' E 008°50'0 0.0
2019-Feb-11 08:00N 44°25' E 008°50'0 0.0
2019-Feb-11 07:30N 44°25' E 008°50'0 0.0
2019-Feb-11 06:58N 44°25' E 008°50'0 0.0
2019-Feb-11 06:28N 44°25' E 008°50'0 0.0
2019-Feb-11 05:58N 44°25' E 008°50'0 0.0
2019-Feb-11 05:28N 44°25' E 008°50'0 0.0
2019-Feb-11 04:58N 44°25' E 008°50'0 0.0
2019-Feb-11 04:28N 44°25' E 008°50'0 0.0
2019-Feb-11 03:58N 44°25' E 008°50'0 0.0
2019-Feb-11 03:28N 44°25' E 008°50'0 0.0
2019-Feb-11 02:58N 44°25' E 008°50'0 0.0
2019-Feb-11 02:28N 44°25' E 008°50'0 0.0
2019-Feb-11 01:58N 44°25' E 008°50'0 0.0
2019-Feb-11 01:28N 44°25' E 008°50'0 0.0
2019-Feb-11 00:58N 44°25' E 008°50'0 0.0
2019-Feb-11 00:28N 44°25' E 008°50'0 0.0
2019-Feb-10 23:58N 44°25' E 008°50'0 0.0
2019-Feb-10 23:28N 44°25' E 008°50'0 0.0
2019-Feb-10 22:58N 44°25' E 008°50'0 0.0
2019-Feb-10 22:30N 44°25' E 008°50'0 0.0
2019-Feb-10 22:00N 44°25' E 008°50'0 0.0
2019-Feb-10 21:27N 44°25' E 008°50'0 0.0
2019-Feb-10 21:00N 44°25' E 008°50'0 0.0
2019-Feb-10 20:30N 44°25' E 008°50'0 0.0
2019-Feb-10 20:00N 44°25' E 008°50'0 0.0
2019-Feb-10 19:30N 44°25' E 008°50'0 0.0
2019-Feb-10 19:00N 44°25' E 008°50'0 0.0
2019-Feb-10 18:30N 44°25' E 008°50'0 0.0
2019-Feb-10 18:00N 44°25' E 008°50'0 0.0
2019-Feb-10 17:28N 44°25' E 008°50'0 0.0
2019-Feb-10 16:58N 44°25' E 008°50'0 0.0
2019-Feb-10 16:28N 44°25' E 008°50'0 0.0
2019-Feb-10 15:58N 44°25' E 008°50'0 0.0
2019-Feb-10 15:28N 44°25' E 008°50'0 0.0
2019-Feb-10 14:58N 44°25' E 008°50'0 0.0
2019-Feb-10 14:28N 44°25' E 008°50'0 0.0
2019-Feb-10 13:58N 44°25' E 008°50'0 0.0
2019-Feb-10 13:28N 44°25' E 008°50'0 0.0
2019-Feb-10 12:58N 44°25' E 008°50'0 0.0
2019-Feb-10 12:28N 44°25' E 008°50'0 0.0
2019-Feb-10 11:58N 44°25' E 008°50'0 0.0
2019-Feb-10 11:28N 44°25' E 008°50'0 0.0
2019-Feb-10 10:58N 44°25' E 008°50'0 0.0
2019-Feb-10 10:25N 44°25' E 008°50'0 0.0
2019-Feb-10 09:58N 44°25' E 008°50'0 0.0
2019-Feb-10 09:28N 44°25' E 008°50'0 0.0
2019-Feb-10 08:58N 44°25' E 008°50'0 0.0
2019-Feb-10 08:28N 44°25' E 008°50'0 0.0
2019-Feb-10 07:58N 44°25' E 008°50'0 0.0
2019-Feb-10 07:28N 44°25' E 008°50'0 0.0
2019-Feb-10 06:58N 44°25' E 008°50'0 0.0
2019-Feb-10 06:28N 44°25' E 008°50'0 0.0
2019-Feb-10 05:58N 44°25' E 008°50'0 0.0
2019-Feb-10 05:28N 44°25' E 008°50'0 0.0
2019-Feb-10 04:58N 44°25' E 008°50'0 0.0
2019-Feb-10 04:28N 44°25' E 008°50'0 0.0
2019-Feb-10 03:58N 44°25' E 008°50'0 0.0
2019-Feb-10 03:28N 44°25' E 008°50'0 0.0
2019-Feb-10 02:58N 44°25' E 008°50'0 0.0
2019-Feb-10 02:25N 44°25' E 008°50'0 0.0
2019-Feb-10 01:58N 44°25' E 008°50'0 0.0
2019-Feb-10 01:28N 44°25' E 008°50'0 0.0
2019-Feb-10 00:58N 44°25' E 008°50'0 0.0
2019-Feb-10 00:28N 44°25' E 008°50'0 0.0
2019-Feb-09 23:58N 44°25' E 008°50'0 0.0
2019-Feb-09 23:28N 44°25' E 008°50'0 0.0
2019-Feb-09 22:58N 44°25' E 008°50'0 0.0
2019-Feb-09 22:28N 44°25' E 008°50'0 0.0
2019-Feb-09 21:58N 44°25' E 008°50'0 0.0
2019-Feb-09 21:28N 44°25' E 008°50'0 0.0
2019-Feb-09 20:58N 44°25' E 008°50'0 0.0
2019-Feb-09 20:28N 44°25' E 008°50'0 0.0
2019-Feb-09 19:58N 44°25' E 008°50'0 0.0
2019-Feb-09 19:28N 44°25' E 008°50'0 0.0
2019-Feb-09 18:58N 44°25' E 008°50'0 0.0
2019-Feb-09 18:28N 44°25' E 008°50'0 0.0
2019-Feb-09 17:58N 44°25' E 008°50'0 0.0
2019-Feb-09 17:28N 44°25' E 008°50'0 0.0
2019-Feb-09 16:58N 44°25' E 008°50'0 0.0
2019-Feb-09 16:29N 44°25' E 008°50'0 0.0
2019-Feb-09 15:59N 44°25' E 008°50'0 0.0
2019-Feb-09 15:29N 44°25' E 008°50'0 0.0
2019-Feb-09 14:59N 44°25' E 008°50'0 0.0
2019-Feb-09 14:29N 44°25' E 008°50'0 0.0
2019-Feb-09 13:59N 44°25' E 008°50'0 0.0
2019-Feb-09 13:29N 44°25' E 008°50'0 0.0
2019-Feb-09 12:59N 44°25' E 008°50'0 0.0
2019-Feb-09 12:29N 44°25' E 008°50'0 0.0
2019-Feb-09 11:59N 44°25' E 008°50'0 0.0
2019-Feb-09 11:29N 44°25' E 008°50'0 0.0
2019-Feb-09 10:59N 44°25' E 008°50'0 0.0
2019-Feb-09 10:29N 44°25' E 008°50'0 0.0
2019-Feb-09 09:59N 44°25' E 008°50'0 0.0
2019-Feb-09 09:29N 44°25' E 008°50'0 0.0
2019-Feb-09 08:59N 44°25' E 008°50'0 0.0
2019-Feb-09 08:29N 44°25' E 008°50'0 0.0
2019-Feb-09 07:59N 44°25' E 008°50'0 0.0
2019-Feb-09 07:29N 44°25' E 008°50'0 0.0
2019-Feb-09 06:59N 44°25' E 008°50'0 0.0
2019-Feb-09 06:29N 44°25' E 008°50'0 0.0
2019-Feb-09 05:59N 44°25' E 008°50'0 0.0
2019-Feb-09 05:29N 44°25' E 008°50'0 0.0
2019-Feb-09 04:59N 44°25' E 008°50'0 0.0
2019-Feb-09 04:29N 44°25' E 008°50'  
Track history (hours):
 
Tides and Currents Weather Stations Pressure Air Temp Water Temp Dewpoint Dewpoint Depression Visibility Wind Speed Wind Dir Waves Ship Positions

STS Pogoria

Last reported at 2019-Feb-19 04:24 UTC. Time now 2019-Feb-21 15:38 UTC.
Position N 43°11' E 010°09'.

Length 47 m.

Type: Sailing vessel. MMSI: 261146000.

Date/timePositionNaut miles runAvg speedWind from/ knotsBaromVisibWave heightAir tempDewpointWater temp
2019-Feb-19 04:24N 43°11' E 010°09'3 5.1
2019-Feb-19 03:55N 43°14' E 010°07'2 5.1
2019-Feb-19 03:29N 43°16' E 010°06'2 5.0
2019-Feb-19 03:00N 43°18' E 010°05'3 5.2
2019-Feb-19 02:29N 43°20' E 010°03'2 5.1
2019-Feb-19 02:00N 43°23' E 010°02'3 5.1
2019-Feb-19 01:30N 43°25' E 010°01'3 5.3
2019-Feb-19 01:00N 43°27' E 009°60'3 5.2
2019-Feb-19 00:30N 43°30' E 009°58'3 5.0
2019-Feb-19 00:00N 43°32' E 009°57'3 5.6
2019-Feb-18 23:30N 43°35' E 009°56'3 5.6
2019-Feb-18 23:00N 43°37' E 009°54'3 5.6
2019-Feb-18 22:30N 43°40' E 009°53'3 5.7
2019-Feb-18 22:00N 43°43' E 009°53'3 6.0
2019-Feb-18 21:30N 43°46' E 009°53'3 5.9
2019-Feb-18 21:00N 43°49' E 009°54'3 5.8
2019-Feb-18 20:30N 43°52' E 009°54'3 5.8
2019-Feb-18 20:01N 43°55' E 009°53'3 5.8
2019-Feb-18 19:30N 43°58' E 009°53'3 5.6
2019-Feb-18 19:00N 44°00' E 009°53'3 6.1
2019-Feb-18 18:30N 44°03' E 009°52'0 0.8
2019-Feb-18 18:00N 44°03' E 009°51'0 0.0
2019-Feb-18 17:30N 44°03' E 009°51'0 0.0
2019-Feb-18 17:00N 44°03' E 009°51'0 0.0
2019-Feb-18 16:30N 44°03' E 009°51'0 0.0
2019-Feb-18 16:00N 44°03' E 009°51'0 0.0
2019-Feb-18 15:30N 44°03' E 009°51'0 0.0
2019-Feb-18 15:00N 44°03' E 009°51'0 0.0
2019-Feb-18 14:30N 44°03' E 009°51'0 0.0
2019-Feb-18 14:00N 44°03' E 009°51'0 0.0
2019-Feb-18 13:30N 44°03' E 009°51'0 0.1
2019-Feb-18 13:00N 44°03' E 009°51'0 0.0
2019-Feb-18 12:30N 44°03' E 009°51'0 0.0
2019-Feb-18 12:00N 44°03' E 009°51'0 0.0
2019-Feb-18 11:30N 44°03' E 009°51'0 0.1
2019-Feb-18 10:57N 44°03' E 009°51'0 0.0
2019-Feb-18 10:27N 44°03' E 009°51'0 0.0
2019-Feb-18 10:00N 44°03' E 009°51'0 0.0
2019-Feb-18 09:30N 44°03' E 009°51'0 0.0
2019-Feb-18 09:00N 44°03' E 009°51'0 0.0
2019-Feb-18 08:30N 44°03' E 009°51'0 0.0
2019-Feb-18 07:54N 44°03' E 009°51'0 0.0
2019-Feb-18 07:30N 44°03' E 009°51'0 0.0
2019-Feb-18 07:00N 44°03' E 009°51'0 0.0
2019-Feb-18 06:30N 44°03' E 009°51'0 0.0
2019-Feb-18 06:00N 44°03' E 009°51'0 0.0
2019-Feb-18 05:30N 44°03' E 009°51'0 0.5
2019-Feb-18 05:00N 44°03' E 009°51'2 4.1
2019-Feb-18 04:30N 44°01' E 009°52'2 3.5
2019-Feb-18 04:00N 44°01' E 009°49'2 4.4
2019-Feb-18 03:30N 44°01' E 009°46'3 5.4
2019-Feb-18 03:00N 44°01' E 009°43'3 5.5
2019-Feb-18 02:30N 44°02' E 009°39'3 5.5
2019-Feb-18 02:00N 44°02' E 009°35'3 5.5
2019-Feb-18 01:30N 44°02' E 009°31'3 5.5
2019-Feb-18 01:00N 44°02' E 009°27'3 5.4
2019-Feb-18 00:30N 44°03' E 009°24'3 5.5
2019-Feb-18 00:00N 44°03' E 009°20'3 5.5
2019-Feb-17 23:30N 44°03' E 009°16'3 5.4
2019-Feb-17 23:00N 44°04' E 009°12'3 5.4
2019-Feb-17 22:30N 44°04' E 009°09'3 5.5
2019-Feb-17 22:00N 44°04' E 009°05'3 5.6
2019-Feb-17 21:30N 44°05' E 009°01'7 5.5
2019-Feb-17 20:13N 44°05' E 008°51'5 5.2
2019-Feb-17 19:14N 44°07' E 008°44'2 5.5
2019-Feb-17 18:55N 44°07' E 008°42'18 2.3
2019-Feb-17 10:53N 44°08' E 008°16'0 0.0
2019-Feb-17 05:29N 44°08' E 008°16'0 0.0
2019-Feb-17 02:56N 44°08' E 008°16'0 0.0
2019-Feb-16 13:14N 44°08' E 008°16'0 0.0
2019-Feb-16 12:44N 44°08' E 008°16'0 0.0
2019-Feb-16 11:20N 44°08' E 008°16'0 0.0
2019-Feb-16 10:26N 44°08' E 008°16'0 0.0
2019-Feb-15 16:22N 44°08' E 008°16'0 0.0
2019-Feb-15 14:45N 44°08' E 008°16'1 2.9
2019-Feb-15 14:30N 44°07' E 008°17'2 4.9
2019-Feb-15 14:00N 44°05' E 008°17'0 0.3
2019-Feb-15 13:15N 44°05' E 008°18'0 0.2
2019-Feb-15 12:15N 44°05' E 008°17'0 0.0
2019-Feb-15 11:43N 44°05' E 008°17'0 0.1
2019-Feb-15 10:46N 44°05' E 008°17'1 1.3
2019-Feb-15 10:13N 44°04' E 008°17'2 5.2
2019-Feb-15 09:55N 44°03' E 008°16'3 5.0
2019-Feb-15 09:17N 43°60' E 008°14'2 5.0
2019-Feb-15 08:56N 43°58' E 008°13'2 5.3
2019-Feb-15 08:30N 43°56' E 008°13'2 5.0
2019-Feb-15 08:00N 43°53' E 008°13'2 4.7
2019-Feb-15 07:29N 43°51' E 008°12'2 4.0
2019-Feb-15 07:00N 43°49' E 008°11'2 4.9
2019-Feb-15 06:30N 43°49' E 008°07'3 4.9
2019-Feb-15 05:58N 43°48' E 008°04'2 5.0
2019-Feb-15 05:30N 43°47' E 008°01'6 5.0
2019-Feb-15 04:22N 43°46' E 007°53'2 5.4
2019-Feb-15 04:00N 43°45' E 007°51'4 5.4
2019-Feb-15 03:14N 43°44' E 007°45'1 5.4
2019-Feb-15 03:00N 43°44' E 007°43'3 5.3
2019-Feb-15 02:30N 43°44' E 007°40'3 5.4
2019-Feb-15 02:00N 43°43' E 007°36'3 5.3
2019-Feb-15 01:30N 43°42' E 007°33'3 5.3
2019-Feb-15 01:00N 43°42' E 007°29'3 5.2
2019-Feb-15 00:30N 43°41' E 007°26'3 5.1
2019-Feb-15 00:00N 43°40' E 007°22'3 5.2
2019-Feb-14 23:30N 43°40' E 007°19'2 2.8
2019-Feb-14 22:56N 43°42' E 007°17'0 0.0
2019-Feb-14 22:29N 43°42' E 007°17'0 0.0
2019-Feb-14 21:56N 43°42' E 007°17'0 0.0
2019-Feb-14 21:26N 43°42' E 007°17'0 0.0
2019-Feb-14 20:59N 43°42' E 007°17'0 0.0
2019-Feb-14 20:26N 43°42' E 007°17'0 0.0
2019-Feb-14 19:59N 43°42' E 007°17'0 0.0
2019-Feb-14 19:29N 43°42' E 007°17'0 0.0
2019-Feb-14 18:59N 43°42' E 007°17'0 0.0
2019-Feb-14 18:29N 43°42' E 007°17'0 0.0
2019-Feb-14 17:59N 43°42' E 007°17'0 0.0
2019-Feb-14 17:26N 43°42' E 007°17'0 0.0
2019-Feb-14 16:59N 43°42' E 007°17'0 0.0
2019-Feb-14 16:29N 43°42' E 007°17'0 0.0
2019-Feb-14 15:59N 43°42' E 007°17'0 0.0
2019-Feb-14 15:20N 43°42' E 007°17'0 0.0
2019-Feb-14 14:59N 43°42' E 007°17'0 0.0
2019-Feb-14 14:29N 43°42' E 007°17'0 0.0
2019-Feb-14 13:59N 43°42' E 007°17'0 0.0
2019-Feb-14 13:29N 43°42' E 007°17'0 0.0
2019-Feb-14 12:59N 43°42' E 007°17'0 0.0
2019-Feb-14 12:29N 43°42' E 007°17'0 0.5
2019-Feb-14 12:00N 43°41' E 007°17'3 5.8
2019-Feb-14 11:30N 43°39' E 007°17'3 6.5
2019-Feb-14 11:00N 43°35' E 007°16'3 5.0
2019-Feb-14 10:30N 43°33' E 007°16'0 0.4
2019-Feb-14 10:00N 43°33' E 007°15'0 0.4
2019-Feb-14 09:30N 43°33' E 007°16'0 0.5
2019-Feb-14 09:00N 43°33' E 007°16'0 0.5
2019-Feb-14 08:30N 43°34' E 007°16'0 0.6
2019-Feb-14 08:00N 43°34' E 007°16'0 0.5
2019-Feb-14 07:30N 43°34' E 007°16'0 0.6
2019-Feb-14 07:00N 43°34' E 007°17'0 0.6
2019-Feb-14 06:30N 43°34' E 007°17'0 0.7
2019-Feb-14 06:00N 43°35' E 007°17'0 0.6
2019-Feb-14 05:31N 43°34' E 007°17'2 4.5
2019-Feb-14 05:00N 43°32' E 007°17'2 4.2
2019-Feb-14 04:30N 43°30' E 007°17'2 4.1
2019-Feb-14 04:00N 43°28' E 007°17'4 4.0
2019-Feb-14 03:00N 43°26' E 007°13'2 3.7
2019-Feb-14 02:30N 43°25' E 007°11'2 3.7
2019-Feb-14 02:00N 43°24' E 007°08'2 3.6
2019-Feb-14 01:30N 43°23' E 007°06'2 3.6
2019-Feb-14 00:57N 43°22' E 007°04'2 3.7
2019-Feb-14 00:29N 43°21' E 007°02'2 3.6
2019-Feb-13 23:58N 43°20' E 006°60'3 3.8
2019-Feb-13 23:17N 43°18' E 006°57'1 0.5
2019-Feb-13 21:13N 43°19' E 006°56'1 0.9
2019-Feb-13 20:25N 43°20' E 006°57'1 0.9
2019-Feb-13 19:52N 43°21' E 006°57'0 0.9
2019-Feb-13 19:25N 43°21' E 006°57'0 0.8
2019-Feb-13 18:58N 43°21' E 006°57'0 1.0
2019-Feb-13 18:30N 43°22' E 006°56'14 1.1
2019-Feb-13 05:31N 43°16' E 006°38'0 0.1
2019-Feb-13 05:28N 43°16' E 006°38'0 0.0
2019-Feb-12 23:16N 43°16' E 006°38'0 0.0
2019-Feb-12 22:49N 43°16' E 006°38'0 0.6
2019-Feb-12 22:15N 43°17' E 006°38'11 5.7
2019-Feb-12 20:22N 43°22' E 006°51'2 5.8
2019-Feb-12 20:00N 43°23' E 006°53'3 5.8
2019-Feb-12 19:30N 43°25' E 006°57'3 5.1
2019-Feb-12 19:00N 43°26' E 006°59'2 3.9
2019-Feb-12 18:30N 43°27' E 007°02'2 4.5
2019-Feb-12 18:00N 43°28' E 007°04'2 4.3
2019-Feb-12 17:30N 43°29' E 007°07'2 3.0
2019-Feb-12 17:00N 43°30' E 007°09'2 4.1
2019-Feb-12 16:30N 43°31' E 007°11'2 4.4
2019-Feb-12 16:00N 43°33' E 007°14'3 5.8
2019-Feb-12 15:30N 43°34' E 007°17'3 5.1
2019-Feb-12 15:00N 43°35' E 007°20'3 5.1
2019-Feb-12 14:30N 43°37' E 007°23'1 2.2
2019-Feb-12 14:00N 43°36' E 007°23'1 1.9
2019-Feb-12 13:30N 43°36' E 007°25'2 4.0
2019-Feb-12 13:00N 43°37' E 007°27'2 4.1
2019-Feb-12 12:30N 43°38' E 007°29'2 3.9
2019-Feb-12 12:00N 43°39' E 007°31'2 4.0
2019-Feb-12 11:31N 43°40' E 007°34'2 4.9
2019-Feb-12 11:00N 43°41' E 007°37'3 5.7
2019-Feb-12 10:29N 43°42' E 007°41'3 5.9
2019-Feb-12 10:00N 43°42' E 007°45'3 5.9
2019-Feb-12 09:30N 43°43' E 007°49'3 6.3
2019-Feb-12 09:00N 43°44' E 007°53'3 6.4
2019-Feb-12 08:31N 43°45' E 007°57'4 6.4
2019-Feb-12 07:55N 43°47' E 008°02'6 2.1
2019-Feb-12 04:53N 43°49' E 008°10'3 2.9
2019-Feb-12 03:42N 43°51' E 008°13'1 4.3
2019-Feb-12 03:29N 43°52' E 008°15'11 4.2
2019-Feb-12 00:57N 44°00' E 008°24'4 6.3
2019-Feb-12 00:22N 44°03' E 008°27'3 7.5
2019-Feb-11 23:57N 44°06' E 008°30'4 7.7
2019-Feb-11 23:29N 44°09' E 008°33'3 5.3
2019-Feb-11 23:00N 44°11' E 008°35'3 6.4
2019-Feb-11 22:30N 44°13' E 008°38'3 5.9
2019-Feb-11 22:00N 44°15' E 008°40'3 6.3
2019-Feb-11 21:30N 44°18' E 008°43'3 6.3
2019-Feb-11 21:00N 44°21' E 008°45'3 5.4
2019-Feb-11 20:30N 44°23' E 008°46'3 5.0
2019-Feb-11 20:00N 44°25' E 008°49'1 2.0
2019-Feb-11 19:28N 44°25' E 008°50'0 0.0
2019-Feb-11 18:58N 44°25' E 008°50'0 0.0
2019-Feb-11 18:28N 44°25' E 008°50'0 0.0
2019-Feb-11 17:58N 44°25' E 008°50'0 0.0
2019-Feb-11 17:28N 44°25' E 008°50'0 0.1
2019-Feb-11 17:00N 44°25' E 008°50'0 0.0
2019-Feb-11 16:30N 44°25' E 008°50'0 0.0
2019-Feb-11 16:00N 44°25' E 008°50'0 0.0
2019-Feb-11 15:30N 44°25' E 008°50'0 0.0
2019-Feb-11 15:00N 44°25' E 008°50'0 0.0
2019-Feb-11 14:30N 44°25' E 008°50'0 0.0
2019-Feb-11 14:00N 44°25' E 008°50'0 0.0
2019-Feb-11 13:30N 44°25' E 008°50'0 0.0
2019-Feb-11 13:00N 44°25' E 008°50'0 0.0
2019-Feb-11 12:30N 44°25' E 008°50'0 0.0
2019-Feb-11 12:00N 44°25' E 008°50'0 0.0
2019-Feb-11 11:30N 44°25' E 008°50'0 0.0
2019-Feb-11 11:00N 44°25' E 008°50'0 0.0
2019-Feb-11 10:30N 44°25' E 008°50'0 0.0
2019-Feb-11 10:00N 44°25' E 008°50'0 0.0
2019-Feb-11 09:30N 44°25' E 008°50'0 0.0
2019-Feb-11 09:00N 44°25' E 008°50'0 0.0
2019-Feb-11 08:30N 44°25' E 008°50'0 0.0
2019-Feb-11 08:00N 44°25' E 008°50'0 0.0
2019-Feb-11 07:30N 44°25' E 008°50'0 0.0
2019-Feb-11 06:58N 44°25' E 008°50'0 0.0
2019-Feb-11 06:28N 44°25' E 008°50'0 0.0
2019-Feb-11 05:58N 44°25' E 008°50'0 0.0
2019-Feb-11 05:28N 44°25' E 008°50'0 0.0
2019-Feb-11 04:58N 44°25' E 008°50'0 0.0
2019-Feb-11 04:28N 44°25' E 008°50'0 0.0
2019-Feb-11 03:58N 44°25' E 008°50'0 0.0
2019-Feb-11 03:28N 44°25' E 008°50'0 0.0
2019-Feb-11 02:58N 44°25' E 008°50'0 0.0
2019-Feb-11 02:28N 44°25' E 008°50'0 0.0
2019-Feb-11 01:58N 44°25' E 008°50'0 0.0
2019-Feb-11 01:28N 44°25' E 008°50'0 0.0
2019-Feb-11 00:58N 44°25' E 008°50'0 0.0
2019-Feb-11 00:28N 44°25' E 008°50'0 0.0
2019-Feb-10 23:58N 44°25' E 008°50'0 0.0
2019-Feb-10 23:28N 44°25' E 008°50'0 0.0
2019-Feb-10 22:58N 44°25' E 008°50'0 0.0
2019-Feb-10 22:30N 44°25' E 008°50'0 0.0
2019-Feb-10 22:00N 44°25' E 008°50'0 0.0
2019-Feb-10 21:27N 44°25' E 008°50'0 0.0
2019-Feb-10 21:00N 44°25' E 008°50'0 0.0
2019-Feb-10 20:30N 44°25' E 008°50'0 0.0
2019-Feb-10 20:00N 44°25' E 008°50'0 0.0
2019-Feb-10 19:30N 44°25' E 008°50'0 0.0
2019-Feb-10 19:00N 44°25' E 008°50'0 0.0
2019-Feb-10 18:30N 44°25' E 008°50'0 0.0
2019-Feb-10 18:00N 44°25' E 008°50'0 0.0
2019-Feb-10 17:28N 44°25' E 008°50'0 0.0
2019-Feb-10 16:58N 44°25' E 008°50'0 0.0
2019-Feb-10 16:28N 44°25' E 008°50'0 0.0
2019-Feb-10 15:58N 44°25' E 008°50'0 0.0
2019-Feb-10 15:28N 44°25' E 008°50'0 0.0
2019-Feb-10 14:58N 44°25' E 008°50'0 0.0
2019-Feb-10 14:28N 44°25' E 008°50'0 0.0
2019-Feb-10 13:58N 44°25' E 008°50'0 0.0
2019-Feb-10 13:28N 44°25' E 008°50'0 0.0
2019-Feb-10 12:58N 44°25' E 008°50'0 0.0
2019-Feb-10 12:28N 44°25' E 008°50'0 0.0
2019-Feb-10 11:58N 44°25' E 008°50'0 0.0
2019-Feb-10 11:28N 44°25' E 008°50'0 0.0
2019-Feb-10 10:58N 44°25' E 008°50'0 0.0
2019-Feb-10 10:25N 44°25' E 008°50'0 0.0
2019-Feb-10 09:58N 44°25' E 008°50'0 0.0
2019-Feb-10 09:28N 44°25' E 008°50'0 0.0
2019-Feb-10 08:58N 44°25' E 008°50'0 0.0
2019-Feb-10 08:28N 44°25' E 008°50'0 0.0
2019-Feb-10 07:58N 44°25' E 008°50'0 0.0
2019-Feb-10 07:28N 44°25' E 008°50'0 0.0
2019-Feb-10 06:58N 44°25' E 008°50'0 0.0
2019-Feb-10 06:28N 44°25' E 008°50'0 0.0
2019-Feb-10 05:58N 44°25' E 008°50'0 0.0
2019-Feb-10 05:28N 44°25' E 008°50'0 0.0
2019-Feb-10 04:58N 44°25' E 008°50'0 0.0
2019-Feb-10 04:28N 44°25' E 008°50'0 0.0
2019-Feb-10 03:58N 44°25' E 008°50'0 0.0
2019-Feb-10 03:28N 44°25' E 008°50'0 0.0
2019-Feb-10 02:58N 44°25' E 008°50'0 0.0
2019-Feb-10 02:25N 44°25' E 008°50'0 0.0
2019-Feb-10 01:58N 44°25' E 008°50'0 0.0
2019-Feb-10 01:28N 44°25' E 008°50'0 0.0
2019-Feb-10 00:58N 44°25' E 008°50'0 0.0
2019-Feb-10 00:28N 44°25' E 008°50'0 0.0
2019-Feb-09 23:58N 44°25' E 008°50'0 0.0
2019-Feb-09 23:28N 44°25' E 008°50'0 0.0
2019-Feb-09 22:58N 44°25' E 008°50'0 0.0
2019-Feb-09 22:28N 44°25' E 008°50'0 0.0
2019-Feb-09 21:58N 44°25' E 008°50'0 0.0
2019-Feb-09 21:28N 44°25' E 008°50'0 0.0
2019-Feb-09 20:58N 44°25' E 008°50'0 0.0
2019-Feb-09 20:28N 44°25' E 008°50'0 0.0
2019-Feb-09 19:58N 44°25' E 008°50'0 0.0
2019-Feb-09 19:28N 44°25' E 008°50'0 0.0
2019-Feb-09 18:58N 44°25' E 008°50'0 0.0
2019-Feb-09 18:28N 44°25' E 008°50'0 0.0
2019-Feb-09 17:58N 44°25' E 008°50'0 0.0
2019-Feb-09 17:28N 44°25' E 008°50'0 0.0
2019-Feb-09 16:58N 44°25' E 008°50'0 0.0
2019-Feb-09 16:29N 44°25' E 008°50'0 0.0
2019-Feb-09 15:59N 44°25' E 008°50'0 0.0
2019-Feb-09 15:29N 44°25' E 008°50'0 0.0
2019-Feb-09 14:59N 44°25' E 008°50'0 0.0
2019-Feb-09 14:29N 44°25' E 008°50'0 0.0
2019-Feb-09 13:59N 44°25' E 008°50'0 0.0
2019-Feb-09 13:29N 44°25' E 008°50'0 0.0
2019-Feb-09 12:59N 44°25' E 008°50'0 0.0
2019-Feb-09 12:29N 44°25' E 008°50'0 0.0
2019-Feb-09 11:59N 44°25' E 008°50'0 0.0
2019-Feb-09 11:29N 44°25' E 008°50'0 0.0
2019-Feb-09 10:59N 44°25' E 008°50'0 0.0
2019-Feb-09 10:29N 44°25' E 008°50'0 0.0
2019-Feb-09 09:59N 44°25' E 008°50'0 0.0
2019-Feb-09 09:29N 44°25' E 008°50'0 0.0
2019-Feb-09 08:59N 44°25' E 008°50'0 0.0
2019-Feb-09 08:29N 44°25' E 008°50'0 0.0
2019-Feb-09 07:59N 44°25' E 008°50'0 0.0
2019-Feb-09 07:29N 44°25' E 008°50'0 0.0
2019-Feb-09 06:59N 44°25' E 008°50'0 0.0
2019-Feb-09 06:29N 44°25' E 008°50'0 0.0
2019-Feb-09 05:59N 44°25' E 008°50'0 0.0
2019-Feb-09 05:29N 44°25' E 008°50'0 0.0
2019-Feb-09 04:59N 44°25' E 008°50'0 0.0
2019-Feb-09 04:29N 44°25' E 008°50'  

Dump ship's entire track history